Flight Track Log - Related Links

Times and Time Zones

All times are in EDT time to prevent confusion due to time zone crossing. See the N6345B flight status page for this flight to view local times or setup timezone preferences in your user account.

Time Position Orientation Groundspeed Altitude Reporting Facility
EDT Latitude Longitude Course Direction KTS MPH feet Rate Location/Type
Fri 08:57:39 PM 28.1167 -80.6333 360° North 68 78 800  Level Orlando TRACON
Fri 08:58:39 PM 28.1167 -80.6000 90° East 83 96 1,500 626 Climbing Orlando TRACON
Fri 08:59:34 PM 28.1167 -80.5833 90° East 82 94 2,000 526 Climbing Orlando TRACON
Fri 09:00:33 PM 28.1333 -80.5500 60° Northeast 84 97 2,500 550 Climbing Orlando TRACON
Fri 09:01:34 PM 28.1333 -80.5333 90° East 89 102 3,100 545 Climbing Orlando TRACON
Fri 09:02:34 PM 28.1500 -80.5333 360° North 92 106 3,600 500 Climbing Orlando TRACON
Fri 09:03:34 PM 28.1667 -80.5500 319° Northwest 93 107 4,100 504 Climbing Orlando TRACON
Fri 09:04:45 PM 28.2000 -80.5667 336° Northwest 91 105 4,700 429 Climbing Orlando TRACON
Fri 09:05:40 PM 28.2167 -80.5833 319° Northwest 94 108 5,000 157 Climbing Orlando TRACON
Fri 09:06:40 PM 28.2500 -80.6000 336° Northwest 114 131 5,000  Level Orlando TRACON
Fri 09:07:40 PM 28.2667 -80.6167 319° Northwest 88 101 5,000  Level Orlando TRACON
Fri 09:08:34 PM 28.2833 -80.6333 319° Northwest 99 114 5,000  Level Orlando TRACON
Fri 09:09:34 PM 28.3000 -80.6500 319° Northwest 94 108 5,000  Level Orlando TRACON
Fri 09:10:28 PM 28.3333 -80.6667 336° Northwest 96 110 5,000  Level Orlando TRACON
Fri 09:11:34 PM 28.3500 -80.6833 319° Northwest 100 115 5,000  Level Orlando TRACON
Fri 09:12:34 PM 28.3833 -80.7000 336° Northwest 100 115 5,000  Level Orlando TRACON
Fri 09:13:34 PM 28.4000 -80.7167 319° Northwest 93 107 5,000  Level Orlando TRACON
Fri 09:14:34 PM 28.4167 -80.7333 319° Northwest 91 105 5,000  Level Orlando TRACON
Fri 09:15:28 PM 28.4333 -80.7500 319° Northwest 96 110 5,000  Level Orlando TRACON
Fri 09:16:28 PM 28.4667 -80.7667 336° Northwest 96 110 5,000  Level Orlando TRACON
Fri 09:17:28 PM 28.4833 -80.7667 360° North 94 108 5,000  Level Orlando TRACON
Fri 09:18:28 PM 28.5167 -80.7833 336° Northwest 94 108 5,000  Level Orlando TRACON
Fri 09:19:28 PM 28.5333 -80.8000 319° Northwest 93 107 5,000  Level Orlando TRACON
Fri 09:20:29 PM 28.5500 -80.8167 319° Northwest 96 110 5,000  Level Orlando TRACON
Fri 09:21:34 PM 28.5833 -80.8333 336° Northwest 98 113 5,000  Level Orlando TRACON
Fri 09:22:29 PM 28.6000 -80.8333 360° North 98 113 5,000  Level Orlando TRACON
Fri 09:23:29 PM 28.6333 -80.8500 336° Northwest 98 113 5,000  Level Orlando TRACON
Fri 09:24:29 PM 28.6500 -80.8500 360° North 100 115 5,000  Level Orlando TRACON
Fri 09:25:29 PM 28.6833 -80.8667 336° Northwest 101 116 5,000  Level Orlando TRACON
Fri 09:26:29 PM 28.7167 -80.8833 336° Northwest 100 115 5,000  Level Orlando TRACON
Fri 09:28:22 PM 28.7564 -80.8986 341° North 100 115 5,000  Level Jacksonville Center
Fri 09:29:23 PM 28.7817 -80.9100 338° Northwest 100 115 5,000  Level Jacksonville Center
Fri 09:30:23 PM 28.8108 -80.9211 342° North 99 114 5,000  Level Jacksonville Center
Fri 09:31:24 PM 28.8383 -80.9300 344° North 100 115 5,000  Level Jacksonville Center
Fri 09:32:25 PM 28.8656 -80.9414 340° North 100 115 5,000 -49 Level Jacksonville Center
Fri 09:33:26 PM 28.8908 -80.9506 342° North 101 116 4,900 -298 Descending Jacksonville Center
Fri 09:34:26 PM 28.9181 -80.9642 336° Northwest 102 117 4,400 -496 Descending Jacksonville Center
Fri 09:35:27 PM 28.9433 -80.9731 343° North 99 114 3,900 -541 Descending Jacksonville Center
Fri 09:36:28 PM 28.9706 -80.9844 340° North 98 113 3,300 -446 Descending Jacksonville Center
Fri 09:37:28 PM 28.9936 -80.9936 341° North 92 106 3,000 -149 Descending Jacksonville Center
Fri 09:38:29 PM 29.0169 -81.0097 329° Northwest 89 102 3,000  Level Jacksonville Center
Fri 09:39:29 PM 29.0358 -81.0236 327° Northwest 88 101 3,000  Level Jacksonville Center
Fri 09:40:30 PM 29.0569 -81.0422 322° Northwest 89 102 3,000  Level Jacksonville Center
Fri 09:41:31 PM 29.0758 -81.0561 327° Northwest 89 102 3,000  Level Jacksonville Center
Fri 09:42:31 PM 29.0742 -81.0822 266° West 87 100 3,000  Level Jacksonville Center
Fri 09:43:32 PM 29.0706 -81.1108 262° West 90 104 3,000  Level Jacksonville Center
Fri 09:44:33 PM 29.0667 -81.1442 262° West 101 116 3,000  Level Jacksonville Center
Fri 09:45:33 PM 29.0650 -81.1728 266° West 96 110 3,000 -248 Level Jacksonville Center
Fri 09:46:34 PM 29.0922 -81.1817 344° North 99 114 2,500 -496 Descending Jacksonville Center
Fri 09:47:34 PM 29.1172 -81.1811 North 94 108 2,000 -446 Descending Jacksonville Center
Fri 09:48:35 PM 29.1381 -81.1642 35° Northeast 95 109 1,600 -443 Descending Jacksonville Center
Fri 09:49:36 PM 29.1481 -81.1356 68° East 102 117 1,100 -545 Descending Jacksonville Center
Fri 09:50:36 PM 29.1600 -81.1044 66° East 104 120 500 -600 Descending Jacksonville Center
Fri 09:52:00 PM 29.1645 -81.0676 82° East  Level FlightAware Approximate
Fri 09:59:00 PM 29.1667 -81.0500 64° Northeast  Level FlightAware Approximate
Fri 10:00:00 PM 29.1799 -81.0581 64° Northeast  Level Estimated
Fri 10:01:00 PM 29.1799 -81.0581 64° Northeast  Level Estimated

Login

Don't have an account? Register now (free) for customized features, flight alerts, and more!